sensor_id;sensor_type;location;lat;lon;timestamp;P1;durP1;ratioP1;P2;durP2;ratioP2
52136;SDS011;69622;49.570;10.986;2024-02-28T00:00:45;22.58;;;8.02;;
52136;SDS011;69622;49.570;10.986;2024-02-28T00:03:47;18.13;;;8.13;;
52136;SDS011;69622;49.570;10.986;2024-02-28T00:06:48;17.83;;;7.72;;
52136;SDS011;69622;49.570;10.986;2024-02-28T00:09:50;16.65;;;7.07;;
52136;SDS011;69622;49.570;10.986;2024-02-28T00:12:52;19.83;;;7.82;;
52136;SDS011;69622;49.570;10.986;2024-02-28T00:15:53;18.58;;;7.65;;
52136;SDS011;69622;49.570;10.986;2024-02-28T00:18:55;16.95;;;7.63;;
52136;SDS011;69622;49.570;10.986;2024-02-28T00:21:57;19.73;;;7.28;;
52136;SDS011;69622;49.570;10.986;2024-02-28T00:24:58;20.70;;;8.02;;
52136;SDS011;69622;49.570;10.986;2024-02-28T00:28:02;16.45;;;7.10;;
52136;SDS011;69622;49.570;10.986;2024-02-28T00:31:03;19.83;;;8.55;;
52136;SDS011;69622;49.570;10.986;2024-02-28T00:34:04;15.98;;;6.80;;
52136;SDS011;69622;49.570;10.986;2024-02-28T00:37:10;22.48;;;7.22;;
52136;SDS011;69622;49.570;10.986;2024-02-28T00:40:14;18.20;;;7.30;;
52136;SDS011;69622;49.570;10.986;2024-02-28T00:43:15;19.90;;;7.45;;
52136;SDS011;69622;49.570;10.986;2024-02-28T00:46:17;17.38;;;6.30;;
52136;SDS011;69622;49.570;10.986;2024-02-28T00:49:18;19.85;;;7.75;;
52136;SDS011;69622;49.570;10.986;2024-02-28T00:52:20;16.20;;;7.20;;
52136;SDS011;69622;49.570;10.986;2024-02-28T00:55:21;17.95;;;8.00;;
52136;SDS011;69622;49.570;10.986;2024-02-28T00:58:23;14.45;;;6.45;;
52136;SDS011;69622;49.570;10.986;2024-02-28T01:01:24;15.30;;;8.40;;
52136;SDS011;69622;49.570;10.986;2024-02-28T01:04:26;17.50;;;7.38;;
52136;SDS011;69622;49.570;10.986;2024-02-28T01:07:27;20.80;;;7.40;;
52136;SDS011;69622;49.570;10.986;2024-02-28T01:10:29;19.02;;;8.65;;
52136;SDS011;69622;49.570;10.986;2024-02-28T01:13:30;21.52;;;8.07;;
52136;SDS011;69622;49.570;10.986;2024-02-28T01:16:32;12.82;;;6.97;;
52136;SDS011;69622;49.570;10.986;2024-02-28T01:19:33;17.00;;;6.90;;
52136;SDS011;69622;49.570;10.986;2024-02-28T01:22:35;18.45;;;8.23;;
52136;SDS011;69622;49.570;10.986;2024-02-28T01:25:36;17.20;;;6.97;;
52136;SDS011;69622;49.570;10.986;2024-02-28T01:28:38;16.50;;;7.40;;
52136;SDS011;69622;49.570;10.986;2024-02-28T01:31:39;18.40;;;6.40;;
52136;SDS011;69622;49.570;10.986;2024-02-28T01:34:41;23.50;;;8.40;;
52136;SDS011;69622;49.570;10.986;2024-02-28T01:37:42;19.38;;;6.68;;
52136;SDS011;69622;49.570;10.986;2024-02-28T01:40:46;17.45;;;6.78;;
52136;SDS011;69622;49.570;10.986;2024-02-28T01:43:48;14.90;;;6.17;;
52136;SDS011;69622;49.570;10.986;2024-02-28T01:46:49;16.92;;;7.47;;
52136;SDS011;69622;49.570;10.986;2024-02-28T01:49:52;20.60;;;8.52;;
52136;SDS011;69622;49.570;10.986;2024-02-28T01:52:55;19.17;;;7.72;;
52136;SDS011;69622;49.570;10.986;2024-02-28T01:55:56;14.98;;;7.53;;
52136;SDS011;69622;49.570;10.986;2024-02-28T01:58:58;16.17;;;8.13;;
52136;SDS011;69622;49.570;10.986;2024-02-28T02:02:01;18.35;;;8.52;;
52136;SDS011;69622;49.570;10.986;2024-02-28T02:05:03;20.02;;;8.15;;
52136;SDS011;69622;49.570;10.986;2024-02-28T02:08:04;14.77;;;6.55;;
52136;SDS011;69622;49.570;10.986;2024-02-28T02:11:06;19.80;;;8.05;;
52136;SDS011;69622;49.570;10.986;2024-02-28T02:14:08;19.75;;;7.72;;
52136;SDS011;69622;49.570;10.986;2024-02-28T02:17:09;14.23;;;7.32;;
52136;SDS011;69622;49.570;10.986;2024-02-28T02:20:11;13.93;;;6.68;;
52136;SDS011;69622;49.570;10.986;2024-02-28T02:23:15;19.33;;;7.88;;
52136;SDS011;69622;49.570;10.986;2024-02-28T02:26:17;15.00;;;6.65;;
52136;SDS011;69622;49.570;10.986;2024-02-28T02:29:18;15.75;;;6.38;;
52136;SDS011;69622;49.570;10.986;2024-02-28T02:32:20;14.30;;;6.25;;
52136;SDS011;69622;49.570;10.986;2024-02-28T02:35:21;19.30;;;7.07;;
52136;SDS011;69622;49.570;10.986;2024-02-28T02:38:23;16.48;;;6.55;;
52136;SDS011;69622;49.570;10.986;2024-02-28T02:41:24;14.43;;;6.03;;
52136;SDS011;69622;49.570;10.986;2024-02-28T02:44:26;18.13;;;6.95;;
52136;SDS011;69622;49.570;10.986;2024-02-28T02:47:27;17.10;;;6.60;;
52136;SDS011;69622;49.570;10.986;2024-02-28T02:50:29;13.85;;;6.45;;
52136;SDS011;69622;49.570;10.986;2024-02-28T02:53:30;18.67;;;6.97;;
52136;SDS011;69622;49.570;10.986;2024-02-28T02:56:32;17.23;;;7.15;;
52136;SDS011;69622;49.570;10.986;2024-02-28T02:59:33;15.05;;;7.20;;
52136;SDS011;69622;49.570;10.986;2024-02-28T03:02:34;15.02;;;6.50;;
52136;SDS011;69622;49.570;10.986;2024-02-28T03:05:39;14.55;;;6.00;;
52136;SDS011;69622;49.570;10.986;2024-02-28T03:08:40;13.50;;;6.40;;
52136;SDS011;69622;49.570;10.986;2024-02-28T03:11:42;15.15;;;6.15;;
52136;SDS011;69622;49.570;10.986;2024-02-28T03:14:44;16.15;;;7.00;;
52136;SDS011;69622;49.570;10.986;2024-02-28T03:17:45;15.43;;;6.10;;
52136;SDS011;69622;49.570;10.986;2024-02-28T03:20:47;13.27;;;6.68;;
52136;SDS011;69622;49.570;10.986;2024-02-28T03:23:48;12.40;;;5.95;;
52136;SDS011;69622;49.570;10.986;2024-02-28T03:26:50;17.38;;;7.32;;
52136;SDS011;69622;49.570;10.986;2024-02-28T03:29:51;14.38;;;6.03;;
52136;SDS011;69622;49.570;10.986;2024-02-28T03:32:53;12.75;;;5.75;;
52136;SDS011;69622;49.570;10.986;2024-02-28T03:35:54;15.23;;;7.32;;
52136;SDS011;69622;49.570;10.986;2024-02-28T03:38:56;13.25;;;7.40;;
52136;SDS011;69622;49.570;10.986;2024-02-28T03:41:57;17.13;;;6.35;;
52136;SDS011;69622;49.570;10.986;2024-02-28T03:44:59;16.33;;;5.82;;
52136;SDS011;69622;49.570;10.986;2024-02-28T03:48:00;12.55;;;5.25;;
52136;SDS011;69622;49.570;10.986;2024-02-28T03:51:01;14.15;;;6.53;;
52136;SDS011;69622;49.570;10.986;2024-02-28T03:54:03;13.73;;;5.75;;
52136;SDS011;69622;49.570;10.986;2024-02-28T03:57:05;16.77;;;6.57;;
52136;SDS011;69622;49.570;10.986;2024-02-28T04:00:07;14.00;;;7.28;;
52136;SDS011;69622;49.570;10.986;2024-02-28T04:03:09;19.23;;;6.85;;
52136;SDS011;69622;49.570;10.986;2024-02-28T04:06:11;13.93;;;6.05;;
52136;SDS011;69622;49.570;10.986;2024-02-28T04:09:13;13.38;;;6.43;;
52136;SDS011;69622;49.570;10.986;2024-02-28T04:12:14;17.35;;;6.93;;
52136;SDS011;69622;49.570;10.986;2024-02-28T04:15:16;12.10;;;5.78;;
52136;SDS011;69622;49.570;10.986;2024-02-28T04:18:17;14.43;;;6.25;;
52136;SDS011;69622;49.570;10.986;2024-02-28T04:21:19;15.20;;;5.43;;
52136;SDS011;69622;49.570;10.986;2024-02-28T04:24:20;19.55;;;7.13;;
52136;SDS011;69622;49.570;10.986;2024-02-28T04:27:22;13.20;;;6.82;;
52136;SDS011;69622;49.570;10.986;2024-02-28T04:30:23;12.35;;;5.72;;
52136;SDS011;69622;49.570;10.986;2024-02-28T04:33:25;13.50;;;5.70;;
52136;SDS011;69622;49.570;10.986;2024-02-28T04:36:26;13.10;;;5.43;;
52136;SDS011;69622;49.570;10.986;2024-02-28T04:39:28;18.23;;;7.60;;
52136;SDS011;69622;49.570;10.986;2024-02-28T04:42:29;14.55;;;6.53;;
52136;SDS011;69622;49.570;10.986;2024-02-28T04:45:31;14.23;;;5.88;;
52136;SDS011;69622;49.570;10.986;2024-02-28T04:48:32;14.20;;;6.88;;
52136;SDS011;69622;49.570;10.986;2024-02-28T04:51:35;15.23;;;6.25;;
52136;SDS011;69622;49.570;10.986;2024-02-28T04:54:36;17.02;;;6.85;;
52136;SDS011;69622;49.570;10.986;2024-02-28T04:57:38;13.15;;;6.18;;
52136;SDS011;69622;49.570;10.986;2024-02-28T05:00:39;14.27;;;6.10;;
52136;SDS011;69622;49.570;10.986;2024-02-28T05:03:41;17.30;;;7.32;;
52136;SDS011;69622;49.570;10.986;2024-02-28T05:06:43;16.83;;;7.18;;
52136;SDS011;69622;49.570;10.986;2024-02-28T05:09:44;16.10;;;6.75;;
52136;SDS011;69622;49.570;10.986;2024-02-28T05:12:46;11.75;;;6.38;;
52136;SDS011;69622;49.570;10.986;2024-02-28T05:15:47;19.17;;;7.30;;
52136;SDS011;69622;49.570;10.986;2024-02-28T05:18:49;15.93;;;7.10;;
52136;SDS011;69622;49.570;10.986;2024-02-28T05:21:50;15.20;;;6.45;;
52136;SDS011;69622;49.570;10.986;2024-02-28T05:24:52;15.00;;;6.85;;
52136;SDS011;69622;49.570;10.986;2024-02-28T05:27:55;16.75;;;6.95;;
52136;SDS011;69622;49.570;10.986;2024-02-28T05:30:56;17.35;;;6.55;;
52136;SDS011;69622;49.570;10.986;2024-02-28T05:33:58;13.65;;;5.95;;
52136;SDS011;69622;49.570;10.986;2024-02-28T05:37:01;13.35;;;6.75;;
52136;SDS011;69622;49.570;10.986;2024-02-28T05:40:02;13.95;;;6.00;;
52136;SDS011;69622;49.570;10.986;2024-02-28T05:43:04;15.25;;;5.97;;
52136;SDS011;69622;49.570;10.986;2024-02-28T05:46:06;14.20;;;6.15;;
52136;SDS011;69622;49.570;10.986;2024-02-28T05:49:07;14.30;;;7.10;;
52136;SDS011;69622;49.570;10.986;2024-02-28T05:52:09;14.88;;;6.97;;
52136;SDS011;69622;49.570;10.986;2024-02-28T05:55:10;15.85;;;6.68;;
52136;SDS011;69622;49.570;10.986;2024-02-28T05:58:13;16.75;;;6.05;;
52136;SDS011;69622;49.570;10.986;2024-02-28T06:01:15;16.63;;;6.90;;
52136;SDS011;69622;49.570;10.986;2024-02-28T06:04:20;14.02;;;5.53;;
52136;SDS011;69622;49.570;10.986;2024-02-28T06:07:22;12.70;;;6.32;;
52136;SDS011;69622;49.570;10.986;2024-02-28T06:10:25;18.10;;;7.25;;
52136;SDS011;69622;49.570;10.986;2024-02-28T06:13:27;15.80;;;7.05;;
52136;SDS011;69622;49.570;10.986;2024-02-28T06:16:30;17.70;;;6.88;;
52136;SDS011;69622;49.570;10.986;2024-02-28T06:19:31;14.57;;;6.07;;
52136;SDS011;69622;49.570;10.986;2024-02-28T06:22:33;16.88;;;6.60;;
52136;SDS011;69622;49.570;10.986;2024-02-28T06:25:34;15.70;;;5.95;;
52136;SDS011;69622;49.570;10.986;2024-02-28T06:28:36;12.65;;;5.85;;
52136;SDS011;69622;49.570;10.986;2024-02-28T06:31:39;12.73;;;5.78;;
52136;SDS011;69622;49.570;10.986;2024-02-28T06:34:41;12.93;;;6.05;;
52136;SDS011;69622;49.570;10.986;2024-02-28T06:37:43;15.32;;;5.75;;
52136;SDS011;69622;49.570;10.986;2024-02-28T06:40:50;12.05;;;5.43;;
52136;SDS011;69622;49.570;10.986;2024-02-28T06:43:52;13.13;;;5.70;;
52136;SDS011;69622;49.570;10.986;2024-02-28T06:46:53;13.07;;;6.05;;
52136;SDS011;69622;49.570;10.986;2024-02-28T06:49:55;15.38;;;5.45;;
52136;SDS011;69622;49.570;10.986;2024-02-28T06:52:56;14.35;;;5.88;;
52136;SDS011;69622;49.570;10.986;2024-02-28T06:55:58;15.57;;;6.75;;
52136;SDS011;69622;49.570;10.986;2024-02-28T06:58:59;8.75;;;4.47;;
52136;SDS011;69622;49.570;10.986;2024-02-28T07:02:00;13.85;;;6.22;;
52136;SDS011;69622;49.570;10.986;2024-02-28T07:05:02;15.60;;;6.70;;
52136;SDS011;69622;49.570;10.986;2024-02-28T07:08:05;11.32;;;5.97;;
52136;SDS011;69622;49.570;10.986;2024-02-28T07:11:13;13.57;;;5.68;;
52136;SDS011;69622;49.570;10.986;2024-02-28T07:14:15;12.60;;;5.88;;
52136;SDS011;69622;49.570;10.986;2024-02-28T07:17:19;11.20;;;5.10;;
52136;SDS011;69622;49.570;10.986;2024-02-28T07:20:21;11.82;;;5.53;;
52136;SDS011;69622;49.570;10.986;2024-02-28T07:23:22;11.30;;;5.45;;
52136;SDS011;69622;49.570;10.986;2024-02-28T07:26:24;14.13;;;6.28;;
52136;SDS011;69622;49.570;10.986;2024-02-28T07:29:28;9.98;;;5.40;;
52136;SDS011;69622;49.570;10.986;2024-02-28T07:32:29;15.60;;;5.78;;
52136;SDS011;69622;49.570;10.986;2024-02-28T07:35:48;14.25;;;6.60;;
52136;SDS011;69622;49.570;10.986;2024-02-28T07:38:51;10.90;;;5.63;;
52136;SDS011;69622;49.570;10.986;2024-02-28T07:41:53;12.00;;;5.68;;
52136;SDS011;69622;49.570;10.986;2024-02-28T07:44:57;9.25;;;4.78;;
52136;SDS011;69622;49.570;10.986;2024-02-28T07:47:58;10.88;;;4.93;;
52136;SDS011;69622;49.570;10.986;2024-02-28T07:51:00;12.02;;;5.45;;
52136;SDS011;69622;49.570;10.986;2024-02-28T07:54:02;11.63;;;5.72;;
52136;SDS011;69622;49.570;10.986;2024-02-28T07:57:03;6.95;;;4.35;;
52136;SDS011;69622;49.570;10.986;2024-02-28T08:00:05;11.65;;;5.20;;
52136;SDS011;69622;49.570;10.986;2024-02-28T08:03:07;9.57;;;4.57;;
52136;SDS011;69622;49.570;10.986;2024-02-28T08:06:10;10.35;;;5.05;;
52136;SDS011;69622;49.570;10.986;2024-02-28T08:09:12;19.42;;;9.60;;
52136;SDS011;69622;49.570;10.986;2024-02-28T08:12:14;11.85;;;5.75;;
52136;SDS011;69622;49.570;10.986;2024-02-28T08:15:39;9.77;;;5.15;;
52136;SDS011;69622;49.570;10.986;2024-02-28T08:19:05;8.77;;;4.07;;
52136;SDS011;69622;49.570;10.986;2024-02-28T08:22:30;11.20;;;5.73;;
52136;SDS011;69622;49.570;10.986;2024-02-28T08:25:56;8.20;;;4.38;;
52136;SDS011;69622;49.570;10.986;2024-02-28T08:29:21;11.30;;;5.03;;
52136;SDS011;69622;49.570;10.986;2024-02-28T08:36:12;15.93;;;6.65;;
52136;SDS011;69622;49.570;10.986;2024-02-28T08:39:37;14.50;;;5.03;;
52136;SDS011;69622;49.570;10.986;2024-02-28T08:43:02;10.98;;;4.95;;
52136;SDS011;69622;49.570;10.986;2024-02-28T08:46:28;10.35;;;4.50;;
52136;SDS011;69622;49.570;10.986;2024-02-28T08:49:54;11.68;;;6.13;;
52136;SDS011;69622;49.570;10.986;2024-02-28T08:53:20;10.38;;;5.03;;
52136;SDS011;69622;49.570;10.986;2024-02-28T08:56:45;10.32;;;5.40;;
52136;SDS011;69622;49.570;10.986;2024-02-28T09:03:37;12.68;;;4.88;;
52136;SDS011;69622;49.570;10.986;2024-02-28T09:07:03;9.82;;;4.95;;
52136;SDS011;69622;49.570;10.986;2024-02-28T09:10:28;9.82;;;5.07;;
52136;SDS011;69622;49.570;10.986;2024-02-28T09:13:56;11.10;;;4.43;;
52136;SDS011;69622;49.570;10.986;2024-02-28T09:17:21;8.77;;;5.28;;
52136;SDS011;69622;49.570;10.986;2024-02-28T09:20:47;11.10;;;5.07;;
52136;SDS011;69622;49.570;10.986;2024-02-28T09:24:12;10.13;;;4.85;;
52136;SDS011;69622;49.570;10.986;2024-02-28T09:27:37;9.00;;;4.30;;
52136;SDS011;69622;49.570;10.986;2024-02-28T09:31:04;11.98;;;4.43;;
52136;SDS011;69622;49.570;10.986;2024-02-28T09:34:29;8.90;;;4.47;;
52136;SDS011;69622;49.570;10.986;2024-02-28T09:37:54;12.77;;;4.33;;
52136;SDS011;69622;49.570;10.986;2024-02-28T09:41:19;13.60;;;4.93;;
52136;SDS011;69622;49.570;10.986;2024-02-28T09:44:45;8.20;;;4.68;;
52136;SDS011;69622;49.570;10.986;2024-02-28T09:51:38;12.40;;;5.80;;
52136;SDS011;69622;49.570;10.986;2024-02-28T09:55:04;11.50;;;4.28;;
52136;SDS011;69622;49.570;10.986;2024-02-28T09:58:30;10.25;;;4.72;;
52136;SDS011;69622;49.570;10.986;2024-02-28T10:01:56;11.82;;;4.93;;
52136;SDS011;69622;49.570;10.986;2024-02-28T10:05:23;13.18;;;5.13;;
52136;SDS011;69622;49.570;10.986;2024-02-28T10:08:51;11.65;;;5.28;;
52136;SDS011;69622;49.570;10.986;2024-02-28T10:12:17;10.35;;;4.85;;
52136;SDS011;69622;49.570;10.986;2024-02-28T10:15:44;10.07;;;4.90;;
52136;SDS011;69622;49.570;10.986;2024-02-28T10:19:10;8.43;;;4.65;;
52136;SDS011;69622;49.570;10.986;2024-02-28T10:22:37;9.95;;;4.47;;
52136;SDS011;69622;49.570;10.986;2024-02-28T10:26:02;11.43;;;5.28;;
52136;SDS011;69622;49.570;10.986;2024-02-28T10:29:28;8.43;;;4.88;;
52136;SDS011;69622;49.570;10.986;2024-02-28T10:36:21;7.70;;;3.75;;
52136;SDS011;69622;49.570;10.986;2024-02-28T10:39:48;8.82;;;4.55;;
52136;SDS011;69622;49.570;10.986;2024-02-28T10:43:17;8.65;;;5.18;;
52136;SDS011;69622;49.570;10.986;2024-02-28T10:46:44;9.13;;;5.03;;
52136;SDS011;69622;49.570;10.986;2024-02-28T10:50:14;10.35;;;5.07;;
52136;SDS011;69622;49.570;10.986;2024-02-28T10:53:41;13.25;;;5.00;;
52136;SDS011;69622;49.570;10.986;2024-02-28T10:57:08;9.50;;;4.97;;
52136;SDS011;69622;49.570;10.986;2024-02-28T11:00:38;10.25;;;4.93;;
52136;SDS011;69622;49.570;10.986;2024-02-28T11:04:06;6.88;;;4.55;;
52136;SDS011;69622;49.570;10.986;2024-02-28T11:07:32;8.88;;;4.55;;
52136;SDS011;69622;49.570;10.986;2024-02-28T11:11:01;6.50;;;3.38;;
52136;SDS011;69622;49.570;10.986;2024-02-28T11:14:28;8.63;;;4.15;;
52136;SDS011;69622;49.570;10.986;2024-02-28T11:17:54;8.25;;;4.65;;
52136;SDS011;69622;49.570;10.986;2024-02-28T11:21:33;9.95;;;4.22;;
52136;SDS011;69622;49.570;10.986;2024-02-28T11:25:00;11.95;;;5.20;;
52136;SDS011;69622;49.570;10.986;2024-02-28T11:28:25;10.33;;;5.37;;
52136;SDS011;69622;49.570;10.986;2024-02-28T11:31:51;12.30;;;7.07;;
52136;SDS011;69622;49.570;10.986;2024-02-28T11:35:17;12.18;;;5.00;;
52136;SDS011;69622;49.570;10.986;2024-02-28T11:38:44;7.57;;;4.05;;
52136;SDS011;69622;49.570;10.986;2024-02-28T11:42:10;8.13;;;3.60;;
52136;SDS011;69622;49.570;10.986;2024-02-28T11:45:44;10.90;;;4.40;;
52136;SDS011;69622;49.570;10.986;2024-02-28T11:49:14;12.13;;;4.72;;
52136;SDS011;69622;49.570;10.986;2024-02-28T11:52:40;9.90;;;4.43;;
52136;SDS011;69622;49.570;10.986;2024-02-28T11:56:07;9.68;;;4.38;;
52136;SDS011;69622;49.570;10.986;2024-02-28T11:59:33;7.28;;;4.13;;
52136;SDS011;69622;49.570;10.986;2024-02-28T12:03:05;8.80;;;4.53;;
52136;SDS011;69622;49.570;10.986;2024-02-28T12:06:34;7.13;;;4.10;;
52136;SDS011;69622;49.570;10.986;2024-02-28T12:10:00;7.63;;;3.33;;
52136;SDS011;69622;49.570;10.986;2024-02-28T12:13:26;7.75;;;4.07;;
52136;SDS011;69622;49.570;10.986;2024-02-28T12:16:53;9.52;;;5.65;;
52136;SDS011;69622;49.570;10.986;2024-02-28T12:20:19;10.40;;;4.97;;
52136;SDS011;69622;49.570;10.986;2024-02-28T12:27:11;6.63;;;3.40;;
52136;SDS011;69622;49.570;10.986;2024-02-28T12:30:40;7.80;;;4.30;;
52136;SDS011;69622;49.570;10.986;2024-02-28T12:34:07;8.10;;;3.65;;
52136;SDS011;69622;49.570;10.986;2024-02-28T12:37:32;10.50;;;4.27;;
52136;SDS011;69622;49.570;10.986;2024-02-28T12:40:57;7.07;;;3.60;;
52136;SDS011;69622;49.570;10.986;2024-02-28T12:44:22;9.30;;;3.83;;
52136;SDS011;69622;49.570;10.986;2024-02-28T12:47:48;7.82;;;4.18;;
52136;SDS011;69622;49.570;10.986;2024-02-28T12:51:20;8.77;;;4.10;;
52136;SDS011;69622;49.570;10.986;2024-02-28T12:55:01;12.38;;;3.85;;
52136;SDS011;69622;49.570;10.986;2024-02-28T12:58:26;12.18;;;3.95;;
52136;SDS011;69622;49.570;10.986;2024-02-28T13:01:53;11.10;;;4.13;;
52136;SDS011;69622;49.570;10.986;2024-02-28T13:05:19;11.27;;;4.70;;
52136;SDS011;69622;49.570;10.986;2024-02-28T13:08:44;9.20;;;4.22;;
52136;SDS011;69622;49.570;10.986;2024-02-28T13:12:11;8.55;;;3.75;;
52136;SDS011;69622;49.570;10.986;2024-02-28T13:15:36;11.40;;;5.55;;
52136;SDS011;69622;49.570;10.986;2024-02-28T13:19:01;8.33;;;4.50;;
52136;SDS011;69622;49.570;10.986;2024-02-28T13:22:27;4.68;;;3.15;;
52136;SDS011;69622;49.570;10.986;2024-02-28T13:25:52;7.27;;;3.50;;
52136;SDS011;69622;49.570;10.986;2024-02-28T13:29:18;9.30;;;4.35;;
52136;SDS011;69622;49.570;10.986;2024-02-28T13:32:43;6.30;;;3.92;;
52136;SDS011;69622;49.570;10.986;2024-02-28T13:36:09;6.60;;;3.50;;
52136;SDS011;69622;49.570;10.986;2024-02-28T13:39:34;10.85;;;3.53;;
52136;SDS011;69622;49.570;10.986;2024-02-28T13:43:00;8.35;;;4.55;;
52136;SDS011;69622;49.570;10.986;2024-02-28T13:46:26;8.18;;;3.65;;
52136;SDS011;69622;49.570;10.986;2024-02-28T13:49:52;4.68;;;2.95;;
52136;SDS011;69622;49.570;10.986;2024-02-28T13:53:18;7.60;;;3.42;;
52136;SDS011;69622;49.570;10.986;2024-02-28T13:56:44;5.13;;;2.88;;
52136;SDS011;69622;49.570;10.986;2024-02-28T14:00:10;8.38;;;4.30;;
52136;SDS011;69622;49.570;10.986;2024-02-28T14:03:38;7.57;;;3.55;;
52136;SDS011;69622;49.570;10.986;2024-02-28T14:07:04;7.80;;;3.83;;
52136;SDS011;69622;49.570;10.986;2024-02-28T14:13:56;8.40;;;3.83;;
52136;SDS011;69622;49.570;10.986;2024-02-28T14:20:46;6.75;;;3.72;;
52136;SDS011;69622;49.570;10.986;2024-02-28T14:24:13;5.40;;;3.33;;
52136;SDS011;69622;49.570;10.986;2024-02-28T14:27:46;7.63;;;3.55;;
52136;SDS011;69622;49.570;10.986;2024-02-28T14:31:12;7.90;;;4.20;;
52136;SDS011;69622;49.570;10.986;2024-02-28T14:38:03;7.03;;;3.85;;
52136;SDS011;69622;49.570;10.986;2024-02-28T14:41:28;7.80;;;3.60;;
52136;SDS011;69622;49.570;10.986;2024-02-28T14:44:53;5.55;;;3.05;;
52136;SDS011;69622;49.570;10.986;2024-02-28T14:48:18;9.15;;;4.20;;
52136;SDS011;69622;49.570;10.986;2024-02-28T14:51:44;6.20;;;3.60;;
52136;SDS011;69622;49.570;10.986;2024-02-28T14:55:14;7.47;;;3.35;;
52136;SDS011;69622;49.570;10.986;2024-02-28T15:02:06;6.22;;;3.08;;
52136;SDS011;69622;49.570;10.986;2024-02-28T15:05:32;7.05;;;3.83;;
52136;SDS011;69622;49.570;10.986;2024-02-28T15:08:58;7.35;;;2.67;;
52136;SDS011;69622;49.570;10.986;2024-02-28T15:12:23;8.07;;;4.70;;
52136;SDS011;69622;49.570;10.986;2024-02-28T15:15:48;8.45;;;4.32;;
